Time;durP1;ratioP1;P1;durP2;ratioP2;P2;SDS_P1;SDS_P2;PMS_P1;PMS_P2;Temp;Humidity;BMP_temperature;BMP_pressure;BME280_temperature;BME280_humidity;BME280_pressure;Samples;Min_cycle;Max_cycle;Signal;HPM_P1;HPM_P2
2021/08/03 00:00:53;;;;;;;20.27;19.07;;;;;;;;;;5033820;28;20465;-91
2021/08/03 00:03:23;;;;;;;20.30;18.93;;;;;;;;;;5033769;28;20436;-90
2021/08/03 00:05:51;;;;;;;20.17;18.93;;;;;;;;;;5033833;28;20421;-91
2021/08/03 00:08:22;;;;;;;20.90;19.70;;;;;;;;;;5034095;28;20445;-92
2021/08/03 00:10:50;;;;;;;21.60;20.40;;;;;;;;;;5033860;28;20499;-91
2021/08/03 00:13:17;;;;;;;21.33;20.13;;;;;;;;;;5033873;28;20429;-91
2021/08/03 00:15:46;;;;;;;20.80;19.40;;;;;;;;;;5034024;28;20426;-92
2021/08/03 00:18:16;;;;;;;20.03;18.90;;;;;;;;;;5034008;28;20416;-91
2021/08/03 00:20:44;;;;;;;22.07;20.67;;;;;;;;;;5033762;28;20420;-91
2021/08/03 00:23:12;;;;;;;19.80;18.63;;;;;;;;;;5033953;28;20764;-91
2021/08/03 00:25:39;;;;;;;20.53;19.30;;;;;;;;;;5034209;28;20462;-91
2021/08/03 00:28:07;;;;;;;21.57;20.13;;;;;;;;;;5035874;28;20442;-91
2021/08/03 00:30:34;;;;;;;20.73;19.53;;;;;;;;;;5036816;28;20478;-91
2021/08/03 00:33:02;;;;;;;21.97;20.57;;;;;;;;;;5037001;28;20445;-91
2021/08/03 00:35:31;;;;;;;21.27;20.10;;;;;;;;;;5037237;28;20445;-91
2021/08/03 00:37:58;;;;;;;20.33;19.03;;;;;;;;;;5037105;28;20456;-91
2021/08/03 00:40:26;;;;;;;21.33;20.03;;;;;;;;;;5037042;28;20423;-91
2021/08/03 00:42:54;;;;;;;21.70;20.30;;;;;;;;;;5037023;28;20438;-91
2021/08/03 00:45:21;;;;;;;21.17;19.97;;;;;;;;;;5037428;28;20453;-91
2021/08/03 00:47:49;;;;;;;21.10;19.40;;;;;;;;;;5037242;28;20458;-91
2021/08/03 00:50:16;;;;;;;21.50;20.10;;;;;;;;;;5036729;28;20494;-91
2021/08/03 00:52:45;;;;;;;20.97;19.77;;;;;;;;;;5036613;28;20447;-90
2021/08/03 00:55:13;;;;;;;21.10;19.90;;;;;;;;;;5035781;28;20436;-91
2021/08/03 00:57:41;;;;;;;20.77;19.57;;;;;;;;;;5036922;28;20456;-91
2021/08/03 01:00:09;;;;;;;19.87;18.67;;;;;;;;;;5036586;28;20424;-91
2021/08/03 01:02:37;;;;;;;20.03;18.93;;;;;;;;;;5036682;28;20426;-91
2021/08/03 01:05:05;;;;;;;19.13;18.03;;;;;;;;;;5036426;28;20431;-92
2021/08/03 01:07:36;;;;;;;20.73;19.20;;;;;;;;;;5036453;28;20801;-91
2021/08/03 01:10:10;;;;;;;20.40;19.20;;;;;;;;;;5037103;28;20446;-91
2021/08/03 01:12:43;;;;;;;19.53;18.43;;;;;;;;;;5036579;28;20451;-91
2021/08/03 01:15:13;;;;;;;19.80;18.70;;;;;;;;;;5036899;28;20398;-91
2021/08/03 01:17:45;;;;;;;20.03;18.83;;;;;;;;;;5036435;28;20488;-91
2021/08/03 01:20:14;;;;;;;19.70;18.50;;;;;;;;;;5036571;28;20423;-91
2021/08/03 01:22:57;;;;;;;19.90;18.90;;;;;;;;;;5036400;28;20509;-92
2021/08/03 01:25:34;;;;;;;20.10;19.10;;;;;;;;;;5035626;28;20427;-91
2021/08/03 01:28:19;;;;;;;19.13;18.13;;;;;;;;;;5036024;28;20475;-91
2021/08/03 01:30:56;;;;;;;20.00;18.90;;;;;;;;;;5035827;28;20510;-91
2021/08/03 01:33:25;;;;;;;21.00;19.80;;;;;;;;;;5036878;28;20426;-91
2021/08/03 01:35:54;;;;;;;20.40;19.30;;;;;;;;;;5037095;28;20463;-91
2021/08/03 01:38:22;;;;;;;20.00;19.00;;;;;;;;;;5036036;28;20451;-91
2021/08/03 01:40:51;;;;;;;20.50;19.40;;;;;;;;;;5036862;28;20468;-91
2021/08/03 01:43:19;;;;;;;19.77;18.40;;;;;;;;;;5036760;28;20417;-91
2021/08/03 01:45:49;;;;;;;18.90;17.90;;;;;;;;;;5036243;28;20415;-92
2021/08/03 01:48:17;;;;;;;18.93;18.03;;;;;;;;;;5035981;28;20784;-91
2021/08/03 01:50:49;;;;;;;20.73;19.47;;;;;;;;;;5035705;28;20451;-91
2021/08/03 01:53:17;;;;;;;20.47;19.37;;;;;;;;;;5035712;28;20422;-91
2021/08/03 01:55:45;;;;;;;20.70;19.60;;;;;;;;;;5034867;28;20458;-92
2021/08/03 01:58:13;;;;;;;20.63;19.43;;;;;;;;;;5035880;28;20933;-91
2021/08/03 02:00:40;;;;;;;19.23;18.03;;;;;;;;;;5035896;28;20923;-91
2021/08/03 02:03:11;;;;;;;20.30;19.10;;;;;;;;;;5035196;28;20411;-91
2021/08/03 02:05:38;;;;;;;19.80;18.70;;;;;;;;;;5035598;28;20423;-91
2021/08/03 02:08:07;;;;;;;19.30;18.30;;;;;;;;;;5035298;28;20436;-91
2021/08/03 02:10:35;;;;;;;20.03;18.77;;;;;;;;;;5035746;28;20472;-91
2021/08/03 02:13:02;;;;;;;19.23;18.33;;;;;;;;;;5035501;28;20440;-91
2021/08/03 02:15:30;;;;;;;20.00;18.80;;;;;;;;;;5035592;28;20407;-91
2021/08/03 02:17:58;;;;;;;20.93;19.60;;;;;;;;;;5035141;28;20447;-91
2021/08/03 02:20:27;;;;;;;20.90;19.40;;;;;;;;;;5035582;28;20443;-91
2021/08/03 02:22:54;;;;;;;20.83;19.70;;;;;;;;;;5035193;28;20882;-91
2021/08/03 02:25:22;;;;;;;20.87;19.53;;;;;;;;;;5035253;28;20816;-91
2021/08/03 02:27:49;;;;;;;21.63;20.40;;;;;;;;;;5034928;28;20458;-92
2021/08/03 02:30:17;;;;;;;20.87;19.67;;;;;;;;;;5033347;28;20965;-91
2021/08/03 02:32:46;;;;;;;22.33;20.60;;;;;;;;;;5034882;28;20447;-91
2021/08/03 02:35:16;;;;;;;21.80;20.50;;;;;;;;;;5035107;28;20876;-91
2021/08/03 02:37:47;;;;;;;22.23;20.83;;;;;;;;;;5033756;28;21060;-91
2021/08/03 02:40:14;;;;;;;23.07;21.40;;;;;;;;;;5035098;28;20439;-92
2021/08/03 02:42:42;;;;;;;21.37;20.00;;;;;;;;;;5034717;28;20920;-91
2021/08/03 02:45:11;;;;;;;21.50;20.20;;;;;;;;;;5034706;28;20813;-91
2021/08/03 02:47:46;;;;;;;22.43;21.03;;;;;;;;;;5033336;28;20513;-91
2021/08/03 02:50:13;;;;;;;22.13;20.63;;;;;;;;;;5034407;28;20414;-91
2021/08/03 02:52:43;;;;;;;22.20;20.80;;;;;;;;;;5034449;28;20454;-91
2021/08/03 02:55:14;;;;;;;21.30;20.10;;;;;;;;;;5034850;28;20444;-91
2021/08/03 02:57:42;;;;;;;21.13;19.93;;;;;;;;;;5034844;28;20430;-91
2021/08/03 03:00:10;;;;;;;22.10;20.67;;;;;;;;;;5034812;28;20436;-91
2021/08/03 03:02:39;;;;;;;22.27;20.87;;;;;;;;;;5034633;28;20426;-91
2021/08/03 03:05:09;;;;;;;21.87;20.67;;;;;;;;;;5034660;28;20905;-91
2021/08/03 03:07:39;;;;;;;23.73;22.13;;;;;;;;;;5034445;28;20467;-91
2021/08/03 03:10:08;;;;;;;23.87;22.23;;;;;;;;;;5034529;28;20431;-91
2021/08/03 03:12:38;;;;;;;22.57;21.27;;;;;;;;;;5034564;28;20454;-91
2021/08/03 03:15:06;;;;;;;23.50;22.03;;;;;;;;;;5034234;28;20539;-91
2021/08/03 03:17:35;;;;;;;23.20;21.60;;;;;;;;;;5034546;28;20432;-92
2021/08/03 03:20:03;;;;;;;22.97;21.37;;;;;;;;;;5034185;28;20410;-91
2021/08/03 03:22:31;;;;;;;24.20;22.60;;;;;;;;;;5034688;28;20439;-91
2021/08/03 03:24:59;;;;;;;24.20;22.40;;;;;;;;;;5034574;28;20405;-91
2021/08/03 03:27:27;;;;;;;25.30;23.60;;;;;;;;;;5034336;28;20498;-90
2021/08/03 03:29:56;;;;;;;24.90;23.27;;;;;;;;;;5034241;28;20493;-91
2021/08/03 03:32:23;;;;;;;25.50;23.90;;;;;;;;;;5033752;28;20502;-91
2021/08/03 03:34:51;;;;;;;26.63;24.83;;;;;;;;;;5034761;28;20803;-91
2021/08/03 03:37:19;;;;;;;26.00;24.20;;;;;;;;;;5033855;28;20501;-92
2021/08/03 03:39:47;;;;;;;25.53;23.93;;;;;;;;;;5034327;28;20439;-91
2021/08/03 03:42:14;;;;;;;24.60;23.00;;;;;;;;;;5034415;28;20442;-90
2021/08/03 03:44:42;;;;;;;24.43;22.83;;;;;;;;;;5034505;28;20414;-91
2021/08/03 03:47:13;;;;;;;24.73;22.97;;;;;;;;;;5034270;28;20470;-91
2021/08/03 03:49:44;;;;;;;25.23;23.53;;;;;;;;;;5034284;28;20436;-91
2021/08/03 03:52:11;;;;;;;23.40;21.80;;;;;;;;;;5033082;28;20827;-91
2021/08/03 03:54:40;;;;;;;23.60;22.10;;;;;;;;;;5033922;28;20455;-90
2021/08/03 03:57:10;;;;;;;25.43;23.73;;;;;;;;;;5034185;28;20469;-91
2021/08/03 03:59:38;;;;;;;28.00;25.80;;;;;;;;;;5034606;28;20425;-90
2021/08/03 04:02:08;;;;;;;27.80;25.60;;;;;;;;;;5037910;28;20417;-91
2021/08/03 04:04:37;;;;;;;29.10;26.90;;;;;;;;;;5038102;28;20418;-91
2021/08/03 04:07:04;;;;;;;34.23;31.20;;;;;;;;;;5037521;28;20909;-91
2021/08/03 04:09:32;;;;;;;32.00;29.53;;;;;;;;;;5038635;28;20426;-91
2021/08/03 04:12:00;;;;;;;28.83;26.60;;;;;;;;;;5038539;28;20453;-91
2021/08/03 04:14:29;;;;;;;29.93;27.50;;;;;;;;;;5039387;28;20414;-93
2021/08/03 04:16:59;;;;;;;28.97;26.77;;;;;;;;;;5040431;28;20466;-93
2021/08/03 04:19:26;;;;;;;26.17;24.37;;;;;;;;;;5037189;28;20418;-93
2021/08/03 04:21:55;;;;;;;27.87;25.90;;;;;;;;;;5037836;28;20458;-91
2021/08/03 04:24:23;;;;;;;30.57;28.10;;;;;;;;;;5036993;28;20439;-91
2021/08/03 04:26:50;;;;;;;30.60;28.30;;;;;;;;;;5037479;28;20444;-91
2021/08/03 04:29:18;;;;;;;34.30;31.47;;;;;;;;;;5037163;28;20922;-90
2021/08/03 04:31:45;;;;;;;31.60;29.20;;;;;;;;;;5036823;28;20522;-91
2021/08/03 04:34:13;;;;;;;29.67;27.63;;;;;;;;;;5037201;28;20434;-95
2021/08/03 04:36:40;;;;;;;31.17;28.73;;;;;;;;;;5037083;28;20417;-94
2021/08/03 04:39:11;;;;;;;32.27;29.83;;;;;;;;;;5037313;28;20418;-95
2021/08/03 04:41:38;;;;;;;31.90;29.40;;;;;;;;;;5036871;28;21003;-94
2021/08/03 04:44:06;;;;;;;31.13;28.70;;;;;;;;;;5038740;28;20417;-95
2021/08/03 04:46:33;;;;;;;30.77;28.30;;;;;;;;;;5036242;28;20979;-95
2021/08/03 04:49:01;;;;;;;29.47;27.23;;;;;;;;;;5037142;28;20415;-94
2021/08/03 04:51:28;;;;;;;33.30;30.70;;;;;;;;;;5036724;28;20454;-95
2021/08/03 04:53:55;;;;;;;31.07;28.50;;;;;;;;;;5038476;28;20445;-95
2021/08/03 04:56:24;;;;;;;32.20;29.70;;;;;;;;;;5036343;28;20426;-94
2021/08/03 04:58:52;;;;;;;30.10;27.80;;;;;;;;;;5037295;28;20421;-95
2021/08/03 05:01:19;;;;;;;31.13;28.70;;;;;;;;;;5036576;28;20407;-95
2021/08/03 05:03:47;;;;;;;33.13;30.33;;;;;;;;;;5038623;28;20426;-94
2021/08/03 05:06:14;;;;;;;32.47;29.80;;;;;;;;;;5037139;28;20462;-94
2021/08/03 05:08:41;;;;;;;33.50;30.50;;;;;;;;;;5036535;28;20436;-95
2021/08/03 05:11:09;;;;;;;32.93;30.43;;;;;;;;;;5035786;28;20463;-94
2021/08/03 05:13:38;;;;;;;34.63;31.83;;;;;;;;;;5036944;28;20440;-94
2021/08/03 05:16:06;;;;;;;33.10;30.67;;;;;;;;;;5037317;28;20418;-95
2021/08/03 05:18:33;;;;;;;33.30;30.53;;;;;;;;;;5036802;28;20413;-94
2021/08/03 05:21:00;;;;;;;33.90;31.13;;;;;;;;;;5036152;28;20750;-93
2021/08/03 05:23:28;;;;;;;32.50;30.20;;;;;;;;;;5036397;28;20443;-93
2021/08/03 05:25:55;;;;;;;35.60;32.60;;;;;;;;;;5036424;28;20402;-96
2021/08/03 05:28:22;;;;;;;33.80;30.87;;;;;;;;;;5036589;28;20449;-92
2021/08/03 05:30:51;;;;;;;32.73;30.13;;;;;;;;;;5035841;28;20479;-93
2021/08/03 05:33:19;;;;;;;33.50;30.87;;;;;;;;;;5035930;28;20464;-93
2021/08/03 05:35:46;;;;;;;33.70;31.00;;;;;;;;;;5036166;28;20410;-94
2021/08/03 05:38:14;;;;;;;30.90;28.70;;;;;;;;;;5035811;28;20451;-93
2021/08/03 05:40:41;;;;;;;32.07;29.33;;;;;;;;;;5034859;28;20439;-92
2021/08/03 05:43:08;;;;;;;32.07;29.63;;;;;;;;;;5034928;28;20430;-93
2021/08/03 05:45:36;;;;;;;31.37;28.97;;;;;;;;;;5036170;28;20419;-92
2021/08/03 05:48:05;;;;;;;30.97;28.57;;;;;;;;;;5035999;28;20424;-92
2021/08/03 05:50:32;;;;;;;31.13;28.53;;;;;;;;;;5035652;28;20424;-92
2021/08/03 05:53:00;;;;;;;30.10;28.00;;;;;;;;;;5035768;28;20469;-92
2021/08/03 05:55:27;;;;;;;31.20;28.80;;;;;;;;;;5035368;28;20480;-92
2021/08/03 05:57:54;;;;;;;31.17;28.90;;;;;;;;;;5036177;28;20413;-91
2021/08/03 06:00:22;;;;;;;33.43;30.90;;;;;;;;;;5035354;28;20433;-92
2021/08/03 06:02:49;;;;;;;28.83;26.97;;;;;;;;;;5035665;28;20458;-93
2021/08/03 06:05:18;;;;;;;30.97;28.60;;;;;;;;;;5035426;28;20437;-92
2021/08/03 06:07:48;;;;;;;31.17;28.90;;;;;;;;;;5035764;28;20439;-92
2021/08/03 06:10:16;;;;;;;30.63;28.43;;;;;;;;;;5034530;28;20446;-93
2021/08/03 06:12:46;;;;;;;29.90;27.70;;;;;;;;;;5034325;28;20454;-92
2021/08/03 06:15:14;;;;;;;31.63;28.83;;;;;;;;;;5035122;28;20425;-92
2021/08/03 06:17:45;;;;;;;30.73;28.10;;;;;;;;;;5035430;28;20437;-91
2021/08/03 06:20:13;;;;;;;30.60;28.40;;;;;;;;;;5035364;28;20506;-92
2021/08/03 06:22:42;;;;;;;46.83;31.57;;;;;;;;;;5034957;28;20426;-92
2021/08/03 06:25:10;;;;;;;31.30;28.70;;;;;;;;;;5034910;28;20414;-92
2021/08/03 06:27:38;;;;;;;32.20;29.90;;;;;;;;;;5035345;28;20802;-91
2021/08/03 06:30:06;;;;;;;32.50;29.80;;;;;;;;;;5035457;28;20447;-91
2021/08/03 06:32:34;;;;;;;31.40;29.30;;;;;;;;;;5034978;28;20467;-91
2021/08/03 06:35:01;;;;;;;32.37;29.87;;;;;;;;;;5035107;28;20441;-91
2021/08/03 06:37:29;;;;;;;32.30;29.80;;;;;;;;;;5034977;28;20422;-92
2021/08/03 06:39:58;;;;;;;31.10;28.80;;;;;;;;;;5034761;28;20539;-92
2021/08/03 06:42:28;;;;;;;30.90;28.60;;;;;;;;;;5034932;28;20443;-92
2021/08/03 06:45:01;;;;;;;31.33;28.80;;;;;;;;;;5035119;28;20414;-92
2021/08/03 06:47:30;;;;;;;30.90;28.50;;;;;;;;;;5034571;28;20431;-92
2021/08/03 06:50:00;;;;;;;30.73;28.20;;;;;;;;;;5035133;28;20432;-92
2021/08/03 06:52:28;;;;;;;29.87;27.70;;;;;;;;;;5034576;28;20964;-92
2021/08/03 06:55:02;;;;;;;32.03;29.73;;;;;;;;;;5034840;28;20411;-92
2021/08/03 06:57:34;;;;;;;29.57;27.40;;;;;;;;;;5034751;28;20442;-91
2021/08/03 07:00:03;;;;;;;31.87;29.40;;;;;;;;;;5034641;28;20478;-92
2021/08/03 07:02:31;;;;;;;30.77;28.57;;;;;;;;;;5033618;28;20457;-90
2021/08/03 07:05:00;;;;;;;33.70;30.80;;;;;;;;;;5035138;28;20440;-90
2021/08/03 07:07:28;;;;;;;32.90;30.17;;;;;;;;;;5033588;28;20448;-90
2021/08/03 07:09:55;;;;;;;33.97;31.30;;;;;;;;;;5034899;28;20417;-89
2021/08/03 07:12:23;;;;;;;36.00;33.20;;;;;;;;;;5034183;28;20485;-90
2021/08/03 07:14:52;;;;;;;36.17;33.17;;;;;;;;;;5034636;28;20421;-90
2021/08/03 07:17:19;;;;;;;36.97;34.00;;;;;;;;;;5034643;28;20423;-91
2021/08/03 07:19:47;;;;;;;38.50;35.30;;;;;;;;;;5034273;28;20451;-87
2021/08/03 07:22:16;;;;;;;35.53;32.63;;;;;;;;;;5034518;28;20765;-90
2021/08/03 07:24:44;;;;;;;37.30;33.63;;;;;;;;;;5034290;28;20803;-90
2021/08/03 07:27:11;;;;;;;34.43;31.70;;;;;;;;;;5034373;28;20477;-90
2021/08/03 07:29:39;;;;;;;34.50;31.80;;;;;;;;;;5034807;28;20423;-89
2021/08/03 07:32:09;;;;;;;35.07;31.97;;;;;;;;;;5033976;28;20470;-90
2021/08/03 07:34:37;;;;;;;36.17;33.47;;;;;;;;;;5034678;28;20435;-90
2021/08/03 07:37:05;;;;;;;34.83;32.13;;;;;;;;;;5037358;28;20510;-91
2021/08/03 07:39:33;;;;;;;33.13;30.70;;;;;;;;;;5038391;28;20421;-91
2021/08/03 07:42:00;;;;;;;32.33;29.83;;;;;;;;;;5038280;28;20411;-92
2021/08/03 07:44:27;;;;;;;34.07;31.20;;;;;;;;;;5038485;28;20421;-92
2021/08/03 07:46:55;;;;;;;33.83;30.70;;;;;;;;;;5038137;28;20434;-92
2021/08/03 07:49:24;;;;;;;33.20;30.30;;;;;;;;;;5038250;28;20440;-92
2021/08/03 07:51:52;;;;;;;30.33;28.20;;;;;;;;;;5038364;28;20742;-92
2021/08/03 07:54:19;;;;;;;31.27;28.93;;;;;;;;;;5037920;28;20489;-92
2021/08/03 07:56:47;;;;;;;32.13;29.50;;;;;;;;;;5037905;28;20415;-92
2021/08/03 07:59:14;;;;;;;29.90;27.70;;;;;;;;;;5037426;28;20436;-89
2021/08/03 08:01:41;;;;;;;28.47;26.27;;;;;;;;;;5038101;28;20430;-92
2021/08/03 08:04:09;;;;;;;28.13;26.17;;;;;;;;;;5038361;28;20437;-91
2021/08/03 08:06:38;;;;;;;27.63;25.73;;;;;;;;;;5037887;28;20463;-90
2021/08/03 08:09:05;;;;;;;27.23;25.10;;;;;;;;;;5038064;28;20432;-91
2021/08/03 08:11:33;;;;;;;27.77;25.47;;;;;;;;;;5037662;28;20436;-91
2021/08/03 08:14:00;;;;;;;27.37;25.40;;;;;;;;;;5038644;28;20480;-91
2021/08/03 08:16:27;;;;;;;27.10;25.10;;;;;;;;;;5037684;28;20450;-91
2021/08/03 08:18:55;;;;;;;29.23;26.90;;;;;;;;;;5037463;28;20437;-92
2021/08/03 08:21:22;;;;;;;25.47;23.60;;;;;;;;;;5037387;28;20459;-91
2021/08/03 08:23:51;;;;;;;23.50;22.00;;;;;;;;;;5037648;28;20437;-91
2021/08/03 08:26:19;;;;;;;23.67;22.17;;;;;;;;;;5037767;28;20539;-91
2021/08/03 08:28:46;;;;;;;22.63;21.13;;;;;;;;;;5037501;28;20510;-92
2021/08/03 08:31:13;;;;;;;24.77;23.27;;;;;;;;;;5037019;28;20480;-92
2021/08/03 08:33:40;;;;;;;26.63;24.83;;;;;;;;;;5037401;28;20463;-92
2021/08/03 08:36:08;;;;;;;25.50;23.30;;;;;;;;;;5037400;28;20433;-93
2021/08/03 08:38:35;;;;;;;25.00;23.30;;;;;;;;;;5037126;28;20432;-93
2021/08/03 08:41:04;;;;;;;25.80;23.97;;;;;;;;;;5036724;28;20420;-93
2021/08/03 08:43:32;;;;;;;27.50;25.60;;;;;;;;;;5037657;28;20432;-93
2021/08/03 08:46:00;;;;;;;26.70;24.70;;;;;;;;;;5036900;28;20833;-92
2021/08/03 08:48:27;;;;;;;25.70;24.07;;;;;;;;;;5037218;28;20809;-95
2021/08/03 08:50:55;;;;;;;27.17;25.17;;;;;;;;;;5037631;28;20424;-95
2021/08/03 08:53:25;;;;;;;26.60;24.60;;;;;;;;;;5037277;28;20504;-94
2021/08/03 08:55:53;;;;;;;23.43;21.90;;;;;;;;;;5036872;28;20432;-93
2021/08/03 08:58:21;;;;;;;25.00;23.20;;;;;;;;;;5036810;28;20449;-93
2021/08/03 09:00:49;;;;;;;26.47;24.57;;;;;;;;;;5036727;28;20961;-93
2021/08/03 09:03:16;;;;;;;25.13;23.33;;;;;;;;;;5036986;28;20435;-93
2021/08/03 09:05:44;;;;;;;25.03;23.43;;;;;;;;;;5036744;28;20464;-93
2021/08/03 09:08:12;;;;;;;23.70;22.10;;;;;;;;;;5037103;28;20413;-93
2021/08/03 09:10:40;;;;;;;23.33;21.57;;;;;;;;;;5037222;28;20421;-93
2021/08/03 09:13:10;;;;;;;22.63;20.97;;;;;;;;;;5036978;28;20452;-93
2021/08/03 09:15:39;;;;;;;23.20;21.70;;;;;;;;;;5036801;28;20411;-93
2021/08/03 09:18:11;;;;;;;22.87;21.30;;;;;;;;;;5036669;28;20444;-93
2021/08/03 09:20:38;;;;;;;22.73;21.30;;;;;;;;;;5037346;28;20469;-93
2021/08/03 09:23:06;;;;;;;23.60;21.53;;;;;;;;;;5036926;28;20507;-93
2021/08/03 09:25:33;;;;;;;23.90;22.40;;;;;;;;;;5037320;28;20458;-94
2021/08/03 09:28:04;;;;;;;23.50;22.00;;;;;;;;;;5036610;28;20436;-93
2021/08/03 09:30:33;;;;;;;23.70;22.20;;;;;;;;;;5036211;28;20464;-93
2021/08/03 09:33:02;;;;;;;22.70;21.20;;;;;;;;;;5037001;28;20453;-93
2021/08/03 09:35:30;;;;;;;23.67;22.17;;;;;;;;;;5036170;28;21006;-93
2021/08/03 09:37:58;;;;;;;23.23;21.83;;;;;;;;;;5036448;28;20424;-93
2021/08/03 09:40:27;;;;;;;23.73;22.10;;;;;;;;;;5036420;28;20447;-93
2021/08/03 09:43:01;;;;;;;25.20;23.00;;;;;;;;;;5036344;28;20432;-93
2021/08/03 09:45:29;;;;;;;23.83;22.27;;;;;;;;;;5036135;28;20438;-93
2021/08/03 09:48:09;;;;;;;24.00;22.30;;;;;;;;;;5036125;28;20513;-92
2021/08/03 09:50:51;;;;;;;23.47;21.87;;;;;;;;;;5036692;28;20434;-92
2021/08/03 09:53:33;;;;;;;24.20;22.60;;;;;;;;;;5034911;28;20493;-92
2021/08/03 09:56:00;;;;;;;23.30;21.80;;;;;;;;;;5036625;28;20813;-92
2021/08/03 09:58:28;;;;;;;24.63;22.93;;;;;;;;;;5035919;28;20430;-93
2021/08/03 10:00:55;;;;;;;22.80;21.40;;;;;;;;;;5036006;28;20404;-92
2021/08/03 10:03:26;;;;;;;24.13;22.50;;;;;;;;;;5034862;28;20404;-92
2021/08/03 10:05:54;;;;;;;23.40;22.00;;;;;;;;;;5035661;28;20465;-91
2021/08/03 10:08:21;;;;;;;23.33;21.83;;;;;;;;;;5035977;28;20420;-93
2021/08/03 10:10:49;;;;;;;23.27;21.80;;;;;;;;;;5035858;28;20435;-93
2021/08/03 10:13:16;;;;;;;23.53;22.07;;;;;;;;;;5034335;28;20536;-93
2021/08/03 10:15:45;;;;;;;23.47;21.90;;;;;;;;;;5035499;28;20425;-94
2021/08/03 10:18:12;;;;;;;24.30;22.70;;;;;;;;;;5036158;28;20454;-94
2021/08/03 10:20:44;;;;;;;24.43;22.73;;;;;;;;;;5035265;28;20423;-93
2021/08/03 10:23:12;;;;;;;24.07;22.47;;;;;;;;;;5035194;28;20886;-93
2021/08/03 10:25:41;;;;;;;23.70;22.30;;;;;;;;;;5035337;28;20443;-92
2021/08/03 10:28:22;;;;;;;22.60;20.80;;;;;;;;;;5035182;28;20470;-93
2021/08/03 10:30:50;;;;;;;23.43;21.60;;;;;;;;;;5034835;28;20492;-91
2021/08/03 10:33:32;;;;;;;23.10;21.57;;;;;;;;;;5034737;28;20533;-92
2021/08/03 10:36:01;;;;;;;23.80;22.10;;;;;;;;;;5033180;28;20477;-92
2021/08/03 10:38:29;;;;;;;22.80;21.30;;;;;;;;;;5034843;28;20478;-92
2021/08/03 10:41:02;;;;;;;24.13;22.53;;;;;;;;;;5035976;28;20429;-91
2021/08/03 10:43:38;;;;;;;24.17;22.67;;;;;;;;;;5034670;28;20428;-91
2021/08/03 10:46:22;;;;;;;23.20;21.80;;;;;;;;;;5034997;28;20444;-92
2021/08/03 10:48:53;;;;;;;22.97;21.47;;;;;;;;;;5034566;28;20420;-88
2021/08/03 10:51:53;;;;;;;22.93;21.53;;;;;;;;;;5034855;28;20462;-91
2021/08/03 10:54:22;;;;;;;22.40;20.90;;;;;;;;;;5013117;28;20462;-92
2021/08/03 10:57:22;;;;;;;22.43;20.90;;;;;;;;;;5013429;28;20417;-91
2021/08/03 11:00:02;;;;;;;24.20;22.40;;;;;;;;;;5013110;28;20526;-91
2021/08/03 11:02:46;;;;;;;22.73;21.43;;;;;;;;;;4996823;28;20507;-92
2021/08/03 11:05:32;;;;;;;23.80;22.30;;;;;;;;;;5013678;28;20824;-93
2021/08/03 11:08:18;;;;;;;22.90;21.50;;;;;;;;;;5013269;28;20434;-93
2021/08/03 11:10:57;;;;;;;24.10;22.40;;;;;;;;;;4996225;28;20415;-92
2021/08/03 11:13:35;;;;;;;24.67;23.17;;;;;;;;;;5013364;28;20515;-92
2021/08/03 11:16:03;;;;;;;24.50;23.07;;;;;;;;;;5012992;28;20555;-93
2021/08/03 11:18:40;;;;;;;23.73;21.60;;;;;;;;;;4996870;28;20451;-93
2021/08/03 11:21:08;;;;;;;24.80;23.13;;;;;;;;;;4996656;28;20534;-93
2021/08/03 11:23:54;;;;;;;23.53;22.20;;;;;;;;;;5012795;28;20448;-93
2021/08/03 11:26:23;;;;;;;23.77;22.20;;;;;;;;;;5033021;28;20792;-92
2021/08/03 11:28:57;;;;;;;23.90;22.30;;;;;;;;;;5034341;28;20417;-92
2021/08/03 11:31:24;;;;;;;24.60;22.87;;;;;;;;;;5033394;28;20543;-92
2021/08/03 11:33:56;;;;;;;23.43;21.93;;;;;;;;;;5034458;28;20494;-93
2021/08/03 11:36:24;;;;;;;22.97;21.60;;;;;;;;;;5034460;28;20438;-92
2021/08/03 11:38:51;;;;;;;24.33;22.63;;;;;;;;;;5034324;28;20845;-93
2021/08/03 11:41:20;;;;;;;24.03;22.60;;;;;;;;;;5034308;28;20908;-93
2021/08/03 11:43:49;;;;;;;24.50;22.97;;;;;;;;;;5034267;28;20462;-92
2021/08/03 11:46:24;;;;;;;23.33;21.90;;;;;;;;;;5034432;28;20450;-93
2021/08/03 11:49:02;;;;;;;22.97;21.47;;;;;;;;;;5034401;28;20438;-92
2021/08/03 11:51:35;;;;;;;23.00;21.60;;;;;;;;;;5034431;28;20446;-92
2021/08/03 11:54:11;;;;;;;24.37;22.87;;;;;;;;;;5034356;28;20497;-93
2021/08/03 11:56:38;;;;;;;23.67;22.20;;;;;;;;;;5033819;28;20441;-93
2021/08/03 11:59:07;;;;;;;23.83;22.30;;;;;;;;;;5034009;28;20447;-92
2021/08/03 12:01:48;;;;;;;23.73;22.10;;;;;;;;;;5034213;28;20809;-93
2021/08/03 12:04:15;;;;;;;25.10;23.30;;;;;;;;;;5033815;28;20413;-93
2021/08/03 12:06:43;;;;;;;23.80;22.30;;;;;;;;;;5033890;28;20438;-93
2021/08/03 12:09:11;;;;;;;23.50;22.10;;;;;;;;;;5033290;28;20473;-92
2021/08/03 12:11:39;;;;;;;23.60;22.20;;;;;;;;;;5034234;28;20435;-92
2021/08/03 12:14:11;;;;;;;24.43;22.83;;;;;;;;;;5033755;28;20475;-94
2021/08/03 12:16:42;;;;;;;25.20;23.30;;;;;;;;;;5033746;28;20910;-92
2021/08/03 12:19:24;;;;;;;23.90;22.13;;;;;;;;;;5033811;28;20443;-92
2021/08/03 12:21:52;;;;;;;23.77;22.17;;;;;;;;;;5036175;28;20433;-91
2021/08/03 12:24:19;;;;;;;23.80;22.30;;;;;;;;;;5037282;28;20496;-93
2021/08/03 12:26:47;;;;;;;23.33;21.93;;;;;;;;;;5037516;28;20477;-93
2021/08/03 12:29:15;;;;;;;23.90;22.40;;;;;;;;;;5036995;28;20431;-91
2021/08/03 12:31:43;;;;;;;23.07;21.57;;;;;;;;;;5037093;28;20485;-92
2021/08/03 12:34:12;;;;;;;22.00;20.70;;;;;;;;;;5037459;28;20448;-94
2021/08/03 12:36:43;;;;;;;23.03;21.60;;;;;;;;;;5037056;28;20502;-93
2021/08/03 12:39:17;;;;;;;21.97;20.77;;;;;;;;;;5037541;28;20436;-93
2021/08/03 12:41:45;;;;;;;22.20;20.80;;;;;;;;;;5036972;28;20922;-92
2021/08/03 12:47:11;;;;;;;23.77;22.07;;;;;;;;;;5133543;27;20605;-93
2021/08/03 12:49:41;;;;;;;23.03;21.43;;;;;;;;;;5132655;28;20429;-93
2021/08/03 12:52:09;;;;;;;22.67;21.27;;;;;;;;;;5132948;27;20438;-92
2021/08/03 12:54:36;;;;;;;22.03;20.73;;;;;;;;;;5133087;27;20435;-93
2021/08/03 12:57:05;;;;;;;21.93;20.53;;;;;;;;;;5132680;27;20450;-93
2021/08/03 12:59:33;;;;;;;22.60;20.93;;;;;;;;;;5132878;28;20447;-94
2021/08/03 13:02:00;;;;;;;22.50;21.20;;;;;;;;;;5132653;27;20458;-93
2021/08/03 13:04:29;;;;;;;22.67;21.13;;;;;;;;;;5132844;27;20434;-93
2021/08/03 13:07:00;;;;;;;23.57;22.03;;;;;;;;;;5132326;27;20937;-93
2021/08/03 13:09:27;;;;;;;23.50;21.90;;;;;;;;;;5132047;27;20460;-92
2021/08/03 13:11:54;;;;;;;22.77;21.40;;;;;;;;;;5132925;27;20407;-93
2021/08/03 13:14:22;;;;;;;22.63;21.17;;;;;;;;;;5132841;28;20768;-91
2021/08/03 13:16:54;;;;;;;23.73;22.00;;;;;;;;;;5132786;27;20439;-89
2021/08/03 13:19:22;;;;;;;22.80;21.40;;;;;;;;;;5131541;28;20504;-88
2021/08/03 13:21:51;;;;;;;23.77;22.00;;;;;;;;;;5132159;27;20429;-87
2021/08/03 13:24:18;;;;;;;23.03;21.63;;;;;;;;;;5131237;28;20494;-86
2021/08/03 13:26:46;;;;;;;22.33;21.03;;;;;;;;;;5131730;28;20481;-89
2021/08/03 13:29:13;;;;;;;22.93;21.50;;;;;;;;;;5132170;27;20470;-87
2021/08/03 13:31:41;;;;;;;22.80;21.50;;;;;;;;;;5132219;27;20416;-87
2021/08/03 13:34:09;;;;;;;22.33;20.93;;;;;;;;;;5131781;27;20446;-84
2021/08/03 13:36:36;;;;;;;22.70;21.23;;;;;;;;;;5131941;27;20815;-84
2021/08/03 13:39:05;;;;;;;23.03;21.63;;;;;;;;;;5130300;28;20971;-83
2021/08/03 13:41:33;;;;;;;22.70;21.20;;;;;;;;;;5131453;27;20439;-82
2021/08/03 13:44:01;;;;;;;22.17;20.87;;;;;;;;;;5131199;27;20451;-82
2021/08/03 13:46:28;;;;;;;23.10;21.80;;;;;;;;;;5130830;27;20833;-83
2021/08/03 13:48:55;;;;;;;21.87;20.67;;;;;;;;;;5131621;28;20449;-85
2021/08/03 13:51:24;;;;;;;23.30;22.00;;;;;;;;;;5131391;27;20442;-84
2021/08/03 13:53:51;;;;;;;23.90;22.40;;;;;;;;;;5131803;27;20422;-82
2021/08/03 13:56:20;;;;;;;23.73;22.33;;;;;;;;;;5129837;27;20793;-82
2021/08/03 13:58:47;;;;;;;25.00;23.40;;;;;;;;;;5118237;28;20731;-83
2021/08/03 14:01:15;;;;;;;24.60;22.80;;;;;;;;;;5117406;28;20406;-83
2021/08/03 14:03:42;;;;;;;23.53;22.03;;;;;;;;;;5116105;28;20419;-82
2021/08/03 14:06:10;;;;;;;24.53;22.80;;;;;;;;;;5117128;28;20450;-83
2021/08/03 14:08:38;;;;;;;23.07;21.67;;;;;;;;;;5117227;28;20450;-83
2021/08/03 14:11:05;;;;;;;23.77;22.37;;;;;;;;;;5116843;28;20411;-83
2021/08/03 14:13:34;;;;;;;23.30;21.73;;;;;;;;;;5116808;28;20433;-83
2021/08/03 14:16:06;;;;;;;23.60;22.00;;;;;;;;;;5117151;28;20438;-83
2021/08/03 14:18:33;;;;;;;23.30;21.80;;;;;;;;;;5117004;28;20421;-83
2021/08/03 14:21:01;;;;;;;22.77;21.30;;;;;;;;;;5116876;28;20804;-82
2021/08/03 14:23:28;;;;;;;23.50;21.60;;;;;;;;;;5116638;28;20451;-82
2021/08/03 14:25:56;;;;;;;22.87;21.17;;;;;;;;;;5116568;27;20490;-83
2021/08/03 14:28:23;;;;;;;22.73;21.33;;;;;;;;;;5116550;28;20449;-83
2021/08/03 14:30:52;;;;;;;23.67;22.10;;;;;;;;;;5116744;28;20443;-83